Time;durP1;ratioP1;P1;durP2;ratioP2;P2;SDS_P1;SDS_P2;PMS_P1;PMS_P2;Temp;Humidity;BMP_temperature;BMP_pressure;BME280_temperature;BME280_humidity;BME280_pressure;Samples;Min_cycle;Max_cycle;Signal;HPM_P1;HPM_P2
2024/01/09 00:02:20;;;;;;;7.13;3.00;;;;;;;;;;5039930;28;20489;-78
2024/01/09 00:04:46;;;;;;;4.37;3.00;;;;;;;;;;5037942;28;20538;-78
2024/01/09 00:07:13;;;;;;;7.03;2.80;;;;;;;;;;5040329;28;20485;-79
2024/01/09 00:09:39;;;;;;;2.90;2.67;;;;;;;;;;5039325;28;20544;-79
2024/01/09 00:12:06;;;;;;;3.43;2.87;;;;;;;;;;5039803;28;20468;-77
2024/01/09 00:14:33;;;;;;;4.50;2.53;;;;;;;;;;5039039;28;20507;-79
2024/01/09 00:16:59;;;;;;;3.17;2.47;;;;;;;;;;5040044;28;20998;-77
2024/01/09 00:19:27;;;;;;;6.03;4.50;;;;;;;;;;5039441;28;20551;-77
2024/01/09 00:21:54;;;;;;;3.67;2.67;;;;;;;;;;5040750;28;20513;-77
2024/01/09 00:24:20;;;;;;;4.30;3.20;;;;;;;;;;5039861;28;20504;-77
2024/01/09 00:26:47;;;;;;;4.23;2.90;;;;;;;;;;5040117;28;20892;-77
2024/01/09 00:29:14;;;;;;;5.30;2.67;;;;;;;;;;5039123;28;21014;-79
2024/01/09 00:31:40;;;;;;;6.87;3.30;;;;;;;;;;5040277;28;20448;-78
2024/01/09 00:34:08;;;;;;;5.63;2.93;;;;;;;;;;5039318;28;20909;-78
2024/01/09 00:36:41;;;;;;;8.10;2.60;;;;;;;;;;5039768;28;20499;-79
2024/01/09 00:39:08;;;;;;;5.53;3.30;;;;;;;;;;5038599;28;20530;-79
2024/01/09 00:41:34;;;;;;;7.17;3.90;;;;;;;;;;5039822;28;20480;-79
2024/01/09 00:44:00;;;;;;;6.83;3.23;;;;;;;;;;5038744;28;20552;-79
2024/01/09 00:46:27;;;;;;;5.17;3.53;;;;;;;;;;5039693;28;20520;-78
2024/01/09 00:48:54;;;;;;;5.43;2.83;;;;;;;;;;5039321;28;20467;-77
2024/01/09 00:51:20;;;;;;;3.87;2.73;;;;;;;;;;5040394;28;20536;-78
2024/01/09 00:53:48;;;;;;;3.63;3.17;;;;;;;;;;5039650;28;20525;-77
2024/01/09 00:56:15;;;;;;;5.73;2.83;;;;;;;;;;5039699;28;20528;-78
2024/01/09 00:58:41;;;;;;;4.63;2.50;;;;;;;;;;5038911;28;20507;-78
2024/01/09 01:01:07;;;;;;;6.50;3.67;;;;;;;;;;5039302;28;20437;-78
2024/01/09 01:03:34;;;;;;;4.90;2.80;;;;;;;;;;5039276;28;21041;-78
2024/01/09 01:06:00;;;;;;;5.40;3.10;;;;;;;;;;5038650;28;20507;-77
2024/01/09 01:08:29;;;;;;;5.77;4.13;;;;;;;;;;5038786;28;20469;-78
2024/01/09 01:10:57;;;;;;;2.70;2.50;;;;;;;;;;5040126;28;20472;-77
2024/01/09 01:13:23;;;;;;;7.33;3.50;;;;;;;;;;5038314;28;20488;-76
2024/01/09 01:15:50;;;;;;;3.20;2.47;;;;;;;;;;5040111;28;20497;-76
2024/01/09 01:18:17;;;;;;;3.60;2.50;;;;;;;;;;5039026;28;20491;-77
2024/01/09 01:20:43;;;;;;;5.83;3.30;;;;;;;;;;5039794;28;20875;-78
2024/01/09 01:23:09;;;;;;;4.47;2.93;;;;;;;;;;5038322;28;20548;-78
2024/01/09 01:25:36;;;;;;;5.37;2.60;;;;;;;;;;5040021;28;20491;-78
2024/01/09 01:28:04;;;;;;;4.20;2.43;;;;;;;;;;5039479;28;20481;-77
2024/01/09 01:30:31;;;;;;;5.43;2.70;;;;;;;;;;5040154;28;20475;-78
2024/01/09 01:32:57;;;;;;;3.30;2.30;;;;;;;;;;5039552;28;20524;-79
2024/01/09 01:35:25;;;;;;;3.77;2.57;;;;;;;;;;5039539;28;20480;-78
2024/01/09 01:37:51;;;;;;;4.53;3.77;;;;;;;;;;5039317;28;20449;-79
2024/01/09 01:40:18;;;;;;;5.33;3.17;;;;;;;;;;5039218;28;20452;-78
2024/01/09 01:42:44;;;;;;;7.50;3.00;;;;;;;;;;5038995;28;20473;-82
2024/01/09 01:45:15;;;;;;;5.03;3.28;;;;;;;;;;5038914;28;20489;-78
2024/01/09 01:47:43;;;;;;;3.70;3.20;;;;;;;;;;5039431;28;20198;-77
2024/01/09 01:50:09;;;;;;;10.10;3.67;;;;;;;;;;5039645;28;20457;-78
2024/01/09 01:52:36;;;;;;;5.13;3.30;;;;;;;;;;5040084;28;20229;-76
2024/01/09 01:55:03;;;;;;;2.63;2.40;;;;;;;;;;5038917;28;21096;-77
2024/01/09 01:57:29;;;;;;;5.53;3.50;;;;;;;;;;5038963;28;20878;-78
2024/01/09 01:59:57;;;;;;;3.70;3.17;;;;;;;;;;5038912;28;20515;-78
2024/01/09 02:02:26;;;;;;;2.47;2.20;;;;;;;;;;5040283;28;20261;-78
2024/01/09 02:04:52;;;;;;;4.97;3.30;;;;;;;;;;5038379;28;20275;-78
2024/01/09 02:07:19;;;;;;;4.40;2.83;;;;;;;;;;5039376;28;20228;-78
2024/01/09 02:09:46;;;;;;;5.90;3.15;;;;;;;;;;5039176;28;20738;-78
2024/01/09 02:12:13;;;;;;;4.97;3.13;;;;;;;;;;5039467;28;20583;-78
2024/01/09 02:14:40;;;;;;;6.07;3.80;;;;;;;;;;5038507;28;20564;-78
2024/01/09 02:17:06;;;;;;;3.93;2.60;;;;;;;;;;5044586;28;20495;-78
2024/01/09 02:19:35;;;;;;;6.47;3.20;;;;;;;;;;5043080;28;20536;-78
2024/01/09 02:22:01;;;;;;;5.10;3.30;;;;;;;;;;5043639;28;20479;-78
2024/01/09 02:24:28;;;;;;;3.53;3.23;;;;;;;;;;5042698;28;20933;-78
2024/01/09 02:27:00;;;;;;;7.07;2.75;;;;;;;;;;5043564;28;20962;-78
2024/01/09 02:29:28;;;;;;;4.57;3.07;;;;;;;;;;5043006;28;20644;-78
2024/01/09 02:31:56;;;;;;;4.03;3.33;;;;;;;;;;5043893;28;20471;-78
2024/01/09 02:34:23;;;;;;;5.30;2.83;;;;;;;;;;5042264;28;20522;-78
2024/01/09 02:36:50;;;;;;;5.70;3.33;;;;;;;;;;5042610;28;20515;-78
2024/01/09 02:39:16;;;;;;;5.00;3.80;;;;;;;;;;5042611;28;20738;-78
2024/01/09 02:41:43;;;;;;;5.20;3.53;;;;;;;;;;5043061;28;20523;-78
2024/01/09 02:44:10;;;;;;;4.40;2.40;;;;;;;;;;5042186;28;20290;-78
2024/01/09 02:46:36;;;;;;;5.68;3.25;;;;;;;;;;5042500;28;20456;-79
2024/01/09 02:49:04;;;;;;;4.25;3.40;;;;;;;;;;5041663;28;20635;-79
2024/01/09 02:51:30;;;;;;;6.20;3.38;;;;;;;;;;5042727;28;20715;-78
2024/01/09 02:53:57;;;;;;;8.00;3.92;;;;;;;;;;5042073;28;20253;-78
2024/01/09 02:56:23;;;;;;;6.32;3.53;;;;;;;;;;5041616;28;20221;-78
2024/01/09 02:58:50;;;;;;;4.90;3.03;;;;;;;;;;5041274;28;20256;-78
2024/01/09 03:01:16;;;;;;;7.13;3.80;;;;;;;;;;5042002;28;20973;-78
2024/01/09 03:03:43;;;;;;;6.60;3.65;;;;;;;;;;5041555;28;20311;-78
2024/01/09 03:06:13;;;;;;;7.15;3.88;;;;;;;;;;5042212;28;20210;-78
2024/01/09 03:08:40;;;;;;;5.38;3.33;;;;;;;;;;5038648;28;20262;-78
2024/01/09 03:11:06;;;;;;;6.03;3.47;;;;;;;;;;5042115;28;20607;-78
2024/01/09 03:13:33;;;;;;;10.68;4.45;;;;;;;;;;5040863;28;20653;-79
2024/01/09 03:15:59;;;;;;;5.75;4.00;;;;;;;;;;5042303;28;20669;-78
2024/01/09 03:18:26;;;;;;;5.90;3.63;;;;;;;;;;5041084;28;20688;-78
2024/01/09 03:20:52;;;;;;;4.00;3.33;;;;;;;;;;5041903;28;20482;-78
2024/01/09 03:23:20;;;;;;;8.50;3.42;;;;;;;;;;5041871;28;21084;-77
2024/01/09 03:25:47;;;;;;;7.68;3.22;;;;;;;;;;5042244;28;20737;-77
2024/01/09 03:28:13;;;;;;;4.90;3.17;;;;;;;;;;5042492;28;20253;-78
2024/01/09 03:30:40;;;;;;;7.93;3.92;;;;;;;;;;5042048;28;20292;-78
2024/01/09 03:33:06;;;;;;;5.83;3.60;;;;;;;;;;5041678;28;20260;-78
2024/01/09 03:35:32;;;;;;;9.63;3.90;;;;;;;;;;5042463;28;20600;-77
2024/01/09 03:37:59;;;;;;;5.78;3.13;;;;;;;;;;5041858;28;20224;-78
2024/01/09 03:40:27;;;;;;;6.57;2.83;;;;;;;;;;5042088;28;20233;-77
2024/01/09 03:42:54;;;;;;;9.50;3.80;;;;;;;;;;5041525;28;20250;-79
2024/01/09 03:45:20;;;;;;;6.18;3.45;;;;;;;;;;5042363;28;20236;-77
2024/01/09 03:47:46;;;;;;;7.82;4.35;;;;;;;;;;5042351;28;20297;-79
2024/01/09 03:50:13;;;;;;;3.75;3.10;;;;;;;;;;5042118;28;20229;-78
2024/01/09 03:52:40;;;;;;;6.30;4.40;;;;;;;;;;5042247;28;20224;-78
2024/01/09 03:55:07;;;;;;;7.68;4.20;;;;;;;;;;5041467;28;20275;-78
2024/01/09 03:57:35;;;;;;;7.13;3.33;;;;;;;;;;5042657;28;20234;-77
2024/01/09 04:00:01;;;;;;;4.88;3.50;;;;;;;;;;5041574;28;20264;-77
2024/01/09 04:02:28;;;;;;;6.70;4.38;;;;;;;;;;5042155;28;20256;-77
2024/01/09 04:04:54;;;;;;;4.90;3.67;;;;;;;;;;5041790;28;20675;-77
2024/01/09 04:07:21;;;;;;;6.43;4.25;;;;;;;;;;5042569;28;20690;-78
2024/01/09 04:09:47;;;;;;;6.22;3.53;;;;;;;;;;5041515;28;20253;-78
2024/01/09 04:12:14;;;;;;;6.75;3.63;;;;;;;;;;5042092;28;20220;-77
2024/01/09 04:14:42;;;;;;;6.90;2.95;;;;;;;;;;5041634;28;20253;-78
2024/01/09 04:17:08;;;;;;;4.95;3.13;;;;;;;;;;5042077;28;20232;-77
2024/01/09 04:19:37;;;;;;;6.05;3.40;;;;;;;;;;5041794;28;20268;-78
2024/01/09 04:22:04;;;;;;;6.40;4.22;;;;;;;;;;5041942;28;20636;-77
2024/01/09 04:24:30;;;;;;;7.70;4.25;;;;;;;;;;5041054;28;20737;-77
2024/01/09 04:26:57;;;;;;;11.63;4.68;;;;;;;;;;5042271;28;20294;-78
2024/01/09 04:29:24;;;;;;;6.97;4.68;;;;;;;;;;5041262;28;20323;-77
2024/01/09 04:31:52;;;;;;;7.47;4.05;;;;;;;;;;5041319;28;20229;-78
2024/01/09 04:34:18;;;;;;;8.93;5.00;;;;;;;;;;5041500;28;20237;-78
2024/01/09 04:36:45;;;;;;;15.57;6.25;;;;;;;;;;5041273;28;20690;-78
2024/01/09 04:39:12;;;;;;;12.60;7.47;;;;;;;;;;5038699;28;20267;-78
2024/01/09 04:41:38;;;;;;;11.30;6.43;;;;;;;;;;5042341;28;20746;-79
2024/01/09 04:44:05;;;;;;;7.60;5.88;;;;;;;;;;5042985;28;20249;-78
2024/01/09 04:46:31;;;;;;;8.10;5.70;;;;;;;;;;5044206;28;20236;-76
2024/01/09 04:48:59;;;;;;;7.60;4.60;;;;;;;;;;5043248;28;20249;-78
2024/01/09 04:51:26;;;;;;;8.20;5.15;;;;;;;;;;5042925;28;20206;-77
2024/01/09 04:53:52;;;;;;;12.00;6.00;;;;;;;;;;5042324;28;20655;-78
2024/01/09 04:56:18;;;;;;;8.40;5.05;;;;;;;;;;5042812;28;20225;-78
2024/01/09 04:58:45;;;;;;;9.68;5.40;;;;;;;;;;5043040;28;20255;-77
2024/01/09 05:01:12;;;;;;;11.77;5.10;;;;;;;;;;5043920;28;20195;-77
2024/01/09 05:03:38;;;;;;;6.05;4.50;;;;;;;;;;5042104;28;20233;-77
2024/01/09 05:06:06;;;;;;;6.28;4.45;;;;;;;;;;5043210;28;20238;-76
2024/01/09 05:08:33;;;;;;;7.03;4.43;;;;;;;;;;5042549;28;20264;-77
2024/01/09 05:10:59;;;;;;;4.75;3.97;;;;;;;;;;5042573;28;20644;-77
2024/01/09 05:13:26;;;;;;;7.90;3.97;;;;;;;;;;5042475;28;20321;-77
2024/01/09 05:15:52;;;;;;;5.22;3.50;;;;;;;;;;5042028;28;20240;-77
2024/01/09 05:18:18;;;;;;;5.53;4.38;;;;;;;;;;5042694;28;20235;-77
2024/01/09 05:20:45;;;;;;;8.73;5.03;;;;;;;;;;5042624;28;20226;-77
2024/01/09 05:23:13;;;;;;;3.42;3.03;;;;;;;;;;5042649;28;20253;-78
2024/01/09 05:25:39;;;;;;;7.18;5.10;;;;;;;;;;5042381;28;20254;-77
2024/01/09 05:28:06;;;;;;;9.88;3.50;;;;;;;;;;5042114;28;20253;-78
2024/01/09 05:30:32;;;;;;;8.00;4.90;;;;;;;;;;5042668;28;20234;-77
2024/01/09 05:32:59;;;;;;;11.27;5.22;;;;;;;;;;5042329;28;20237;-78
2024/01/09 05:35:25;;;;;;;9.25;4.50;;;;;;;;;;5043090;28;20721;-77
2024/01/09 05:37:52;;;;;;;7.70;4.72;;;;;;;;;;5042786;28;20293;-78
2024/01/09 05:40:20;;;;;;;7.53;5.93;;;;;;;;;;5042193;28;20642;-77
2024/01/09 05:42:46;;;;;;;6.60;5.13;;;;;;;;;;5041844;28;20257;-78
2024/01/09 05:45:13;;;;;;;6.38;4.20;;;;;;;;;;5041958;28;20232;-76
2024/01/09 05:47:39;;;;;;;8.40;5.03;;;;;;;;;;5042902;28;20256;-77
2024/01/09 05:50:08;;;;;;;8.27;5.00;;;;;;;;;;5041143;28;20265;-78
2024/01/09 05:52:35;;;;;;;8.73;5.55;;;;;;;;;;5041804;28;20217;-77
2024/01/09 05:55:01;;;;;;;8.43;4.90;;;;;;;;;;5042678;28;20260;-76
2024/01/09 05:57:29;;;;;;;9.05;6.47;;;;;;;;;;5041897;28;20223;-76
2024/01/09 05:59:56;;;;;;;8.55;7.43;;;;;;;;;;5042020;28;20257;-77
2024/01/09 06:02:23;;;;;;;10.73;9.23;;;;;;;;;;5042351;28;20232;-76
2024/01/09 06:04:50;;;;;;;10.73;6.25;;;;;;;;;;5041435;28;20289;-77
2024/01/09 06:07:17;;;;;;;13.20;6.70;;;;;;;;;;5041789;28;20206;-76
2024/01/09 06:09:43;;;;;;;8.88;5.68;;;;;;;;;;5041548;28;20237;-78
2024/01/09 06:12:10;;;;;;;9.10;5.50;;;;;;;;;;5041012;28;20234;-77
2024/01/09 06:14:37;;;;;;;7.47;5.75;;;;;;;;;;5041662;28;20672;-77
2024/01/09 06:17:04;;;;;;;6.70;4.80;;;;;;;;;;5041507;28;20228;-77
2024/01/09 06:19:31;;;;;;;9.35;5.57;;;;;;;;;;5040657;28;20236;-77
2024/01/09 06:21:57;;;;;;;14.80;6.07;;;;;;;;;;5041268;28;20222;-77
2024/01/09 06:24:24;;;;;;;7.38;4.78;;;;;;;;;;5039879;28;20234;-77
2024/01/09 06:26:50;;;;;;;9.07;6.13;;;;;;;;;;5040639;28;20684;-77
2024/01/09 06:29:17;;;;;;;6.45;4.82;;;;;;;;;;5040078;28;20750;-77
2024/01/09 06:31:45;;;;;;;6.80;4.80;;;;;;;;;;5040664;28;20286;-77
2024/01/09 06:34:12;;;;;;;7.72;5.45;;;;;;;;;;5039853;28;20675;-77
2024/01/09 06:36:38;;;;;;;9.27;6.20;;;;;;;;;;5039395;28;20241;-77
2024/01/09 06:39:05;;;;;;;10.73;6.43;;;;;;;;;;5039892;28;20257;-77
2024/01/09 06:41:31;;;;;;;8.65;4.80;;;;;;;;;;5041208;28;20229;-77
2024/01/09 06:43:58;;;;;;;10.80;5.88;;;;;;;;;;5040213;28;20289;-77
2024/01/09 06:46:24;;;;;;;13.68;6.57;;;;;;;;;;5040528;28;20679;-76
2024/01/09 06:48:52;;;;;;;7.72;5.22;;;;;;;;;;5040237;28;20715;-77
2024/01/09 06:51:19;;;;;;;11.23;5.70;;;;;;;;;;5040468;28;20265;-78
2024/01/09 06:53:45;;;;;;;7.20;5.25;;;;;;;;;;5040199;28;20235;-76
2024/01/09 06:56:12;;;;;;;9.70;5.38;;;;;;;;;;5039789;28;20260;-77
2024/01/09 06:58:38;;;;;;;8.30;5.93;;;;;;;;;;5038893;28;20245;-76
2024/01/09 07:01:05;;;;;;;9.65;6.43;;;;;;;;;;5041437;28;20312;-77
2024/01/09 07:03:31;;;;;;;9.32;5.40;;;;;;;;;;5043463;28;20230;-76
2024/01/09 07:05:59;;;;;;;8.05;5.95;;;;;;;;;;5043436;28;20276;-76
2024/01/09 07:08:25;;;;;;;10.95;6.50;;;;;;;;;;5042847;28;20256;-78
2024/01/09 07:10:52;;;;;;;10.75;5.43;;;;;;;;;;5043115;28;20231;-77
2024/01/09 07:13:18;;;;;;;9.35;5.93;;;;;;;;;;5043041;28;20240;-77
2024/01/09 07:15:45;;;;;;;9.00;6.93;;;;;;;;;;5042002;28;20253;-76
2024/01/09 07:18:11;;;;;;;8.27;6.20;;;;;;;;;;5042513;28;20703;-77
2024/01/09 07:20:38;;;;;;;14.07;7.57;;;;;;;;;;5043120;28;20234;-76
2024/01/09 07:23:06;;;;;;;12.25;8.70;;;;;;;;;;5042174;28;20237;-77
2024/01/09 07:25:33;;;;;;;18.55;9.45;;;;;;;;;;5042859;28;20651;-76
2024/01/09 07:27:59;;;;;;;15.35;9.98;;;;;;;;;;5042487;28;20231;-77
2024/01/09 07:30:26;;;;;;;11.82;7.43;;;;;;;;;;5042053;28;20225;-78
2024/01/09 07:32:52;;;;;;;14.48;8.90;;;;;;;;;;5041814;28;20202;-78
2024/01/09 07:35:19;;;;;;;12.80;8.10;;;;;;;;;;5041678;28;20257;-77
2024/01/09 07:37:45;;;;;;;13.00;6.68;;;;;;;;;;5042332;28;20703;-80
2024/01/09 07:40:14;;;;;;;11.95;7.70;;;;;;;;;;5041769;28;20234;-77
2024/01/09 07:42:41;;;;;;;14.18;7.30;;;;;;;;;;5041844;28;20217;-77
2024/01/09 07:45:11;;;;;;;10.15;7.30;;;;;;;;;;5040508;28;20234;-77
2024/01/09 07:47:37;;;;;;;13.32;7.70;;;;;;;;;;5042208;28;20198;-77
2024/01/09 07:50:04;;;;;;;17.85;8.25;;;;;;;;;;5041596;28;20265;-77
2024/01/09 07:52:30;;;;;;;18.83;9.23;;;;;;;;;;5041739;28;20631;-78
2024/01/09 07:54:57;;;;;;;12.60;8.30;;;;;;;;;;5040576;28;20755;-77
2024/01/09 07:57:25;;;;;;;14.48;9.77;;;;;;;;;;5041115;28;20232;-77
2024/01/09 07:59:51;;;;;;;10.77;8.45;;;;;;;;;;5040274;28;20233;-76
2024/01/09 08:02:18;;;;;;;16.05;9.52;;;;;;;;;;5041815;28;20752;-77
2024/01/09 08:04:44;;;;;;;18.30;10.20;;;;;;;;;;5040513;28;20261;-77
2024/01/09 08:07:10;;;;;;;19.13;9.25;;;;;;;;;;5040799;28;20651;-77
2024/01/09 08:09:37;;;;;;;13.13;8.82;;;;;;;;;;5040460;28;20745;-77
2024/01/09 08:12:04;;;;;;;17.08;8.20;;;;;;;;;;5040374;28;20710;-77
2024/01/09 08:14:32;;;;;;;15.55;8.40;;;;;;;;;;5039329;28;20233;-77
2024/01/09 08:16:59;;;;;;;21.42;9.30;;;;;;;;;;5040403;28;20288;-78
2024/01/09 08:19:25;;;;;;;15.38;7.80;;;;;;;;;;5039784;28;20428;-78
2024/01/09 08:21:52;;;;;;;9.75;7.60;;;;;;;;;;5040330;28;20289;-77
2024/01/09 08:24:19;;;;;;;20.00;8.00;;;;;;;;;;5039352;28;20723;-77
2024/01/09 08:26:48;;;;;;;10.40;7.85;;;;;;;;;;5039966;28;20210;-77
2024/01/09 08:29:14;;;;;;;12.88;8.13;;;;;;;;;;5039840;28;20230;-77
2024/01/09 08:31:45;;;;;;;11.25;7.85;;;;;;;;;;5039590;28;20202;-79
2024/01/09 08:34:11;;;;;;;12.10;8.25;;;;;;;;;;5039087;28;20624;-78
2024/01/09 08:36:38;;;;;;;12.88;9.02;;;;;;;;;;5039516;28;20233;-78
2024/01/09 08:39:04;;;;;;;9.85;6.85;;;;;;;;;;5039285;28;20261;-78
2024/01/09 08:41:31;;;;;;;12.30;8.00;;;;;;;;;;5039013;28;20273;-78
2024/01/09 08:43:57;;;;;;;11.38;6.97;;;;;;;;;;5038443;28;20763;-78
2024/01/09 08:46:23;;;;;;;15.25;8.45;;;;;;;;;;5039358;28;20230;-79
2024/01/09 08:48:51;;;;;;;13.40;8.75;;;;;;;;;;5035397;28;20727;-77
2024/01/09 08:51:18;;;;;;;12.77;8.15;;;;;;;;;;5038835;28;20720;-78
2024/01/09 08:53:44;;;;;;;11.40;7.75;;;;;;;;;;5038749;28;20304;-78
2024/01/09 08:56:11;;;;;;;11.90;8.25;;;;;;;;;;5039377;28;20700;-77
2024/01/09 08:58:37;;;;;;;16.13;7.70;;;;;;;;;;5037607;28;20305;-78
2024/01/09 09:01:04;;;;;;;9.05;6.57;;;;;;;;;;5038603;28;20259;-77
2024/01/09 09:03:30;;;;;;;10.00;6.93;;;;;;;;;;5038207;28;20249;-78
2024/01/09 09:05:58;;;;;;;8.75;6.55;;;;;;;;;;5037949;28;20249;-78
2024/01/09 09:08:25;;;;;;;11.50;6.72;;;;;;;;;;5037549;28;20644;-77
2024/01/09 09:10:51;;;;;;;9.73;5.63;;;;;;;;;;5037816;28;20658;-77
2024/01/09 09:13:18;;;;;;;9.73;6.45;;;;;;;;;;5037580;28;20309;-78
2024/01/09 09:15:44;;;;;;;10.32;5.57;;;;;;;;;;5038372;28;20313;-78
2024/01/09 09:18:11;;;;;;;12.90;6.13;;;;;;;;;;5037927;28;20256;-78
2024/01/09 09:20:37;;;;;;;12.27;6.70;;;;;;;;;;5037621;28;20202;-77
2024/01/09 09:23:05;;;;;;;9.32;5.95;;;;;;;;;;5036895;28;20261;-78
2024/01/09 09:25:32;;;;;;;8.25;6.25;;;;;;;;;;5037366;28;20287;-77
2024/01/09 09:27:58;;;;;;;5.75;5.15;;;;;;;;;;5037430;28;20771;-78
2024/01/09 09:30:25;;;;;;;9.63;5.90;;;;;;;;;;5037187;28;20220;-77
2024/01/09 09:32:52;;;;;;;9.77;5.75;;;;;;;;;;5036396;28;20636;-78
2024/01/09 09:35:18;;;;;;;7.28;5.18;;;;;;;;;;5037074;28;20221;-77
2024/01/09 09:37:45;;;;;;;7.15;4.65;;;;;;;;;;5036934;28;20289;-78
2024/01/09 09:40:13;;;;;;;5.57;4.60;;;;;;;;;;5036969;28;20204;-78
2024/01/09 09:42:40;;;;;;;7.47;5.45;;;;;;;;;;5036919;28;20313;-78
2024/01/09 09:45:09;;;;;;;5.85;4.32;;;;;;;;;;5036674;28;20267;-78
2024/01/09 09:47:35;;;;;;;7.28;5.28;;;;;;;;;;5036788;28;20763;-78
2024/01/09 09:50:01;;;;;;;6.53;4.90;;;;;;;;;;5037375;28;20619;-78
2024/01/09 09:52:29;;;;;;;7.60;4.80;;;;;;;;;;5036787;28;20249;-78
2024/01/09 09:54:56;;;;;;;10.60;4.90;;;;;;;;;;5037014;28;20264;-78
2024/01/09 09:57:24;;;;;;;8.43;5.57;;;;;;;;;;5036508;28;20379;-78
2024/01/09 09:59:51;;;;;;;10.68;5.05;;;;;;;;;;5036838;28;20237;-78
2024/01/09 10:02:21;;;;;;;6.22;4.25;;;;;;;;;;5036246;28;20201;-79
2024/01/09 10:04:51;;;;;;;5.47;4.43;;;;;;;;;;5035798;28;20268;-78
2024/01/09 10:07:20;;;;;;;5.72;3.80;;;;;;;;;;5035475;28;20292;-79
2024/01/09 10:09:51;;;;;;;6.53;4.65;;;;;;;;;;5035605;28;20688;-77
2024/01/09 10:12:19;;;;;;;6.47;3.67;;;;;;;;;;5034719;28;20190;-78
2024/01/09 10:15:03;;;;;;;13.70;4.50;;;;;;;;;;5035398;28;20712;-78
2024/01/09 10:17:31;;;;;;;6.22;3.35;;;;;;;;;;5035113;28;20225;-78
2024/01/09 10:19:58;;;;;;;3.60;3.30;;;;;;;;;;5035913;28;20274;-77
2024/01/09 10:22:28;;;;;;;8.18;3.72;;;;;;;;;;5035532;28;20337;-78
2024/01/09 10:24:54;;;;;;;4.00;3.10;;;;;;;;;;5036548;28;20221;-77
2024/01/09 10:27:21;;;;;;;8.23;4.40;;;;;;;;;;5034822;28;20539;-79
2024/01/09 10:29:47;;;;;;;7.70;3.77;;;;;;;;;;5035890;28;20692;-78
2024/01/09 10:32:14;;;;;;;6.20;3.45;;;;;;;;;;5035123;28;21002;-78
2024/01/09 10:34:42;;;;;;;3.43;2.90;;;;;;;;;;5035211;28;20310;-78
2024/01/09 10:37:09;;;;;;;7.32;3.85;;;;;;;;;;5037572;28;20543;-80
2024/01/09 10:39:35;;;;;;;6.37;3.10;;;;;;;;;;5039210;28;20233;-77
2024/01/09 10:42:04;;;;;;;4.03;2.93;;;;;;;;;;5039487;28;20870;-78
2024/01/09 10:44:31;;;;;;;7.10;4.37;;;;;;;;;;5038156;28;20568;-78
2024/01/09 10:46:58;;;;;;;5.33;3.30;;;;;;;;;;5038526;28;20903;-78
2024/01/09 10:49:25;;;;;;;7.33;2.83;;;;;;;;;;5038021;28;20555;-78
2024/01/09 10:51:54;;;;;;;4.93;3.60;;;;;;;;;;5038664;28;20994;-77
2024/01/09 10:54:21;;;;;;;3.63;2.87;;;;;;;;;;5038386;28;20479;-78
2024/01/09 10:56:48;;;;;;;5.27;3.40;;;;;;;;;;5038393;28;20500;-78
2024/01/09 10:59:15;;;;;;;3.53;3.03;;;;;;;;;;5037415;28;21069;-78
2024/01/09 11:01:42;;;;;;;4.40;4.00;;;;;;;;;;5038251;28;20527;-78
2024/01/09 11:04:09;;;;;;;5.70;3.80;;;;;;;;;;5037193;28;20559;-78
2024/01/09 11:06:36;;;;;;;6.17;3.33;;;;;;;;;;5037950;28;20448;-78
2024/01/09 11:09:05;;;;;;;5.27;2.93;;;;;;;;;;5037601;28;21010;-77
2024/01/09 11:11:32;;;;;;;3.90;2.67;;;;;;;;;;5037499;28;20957;-78
2024/01/09 11:14:03;;;;;;;4.63;2.40;;;;;;;;;;5036678;28;21029;-79
2024/01/09 11:16:32;;;;;;;4.23;2.50;;;;;;;;;;5037372;28;20432;-79
2024/01/09 11:18:59;;;;;;;3.80;3.20;;;;;;;;;;5036261;28;20475;-79
2024/01/09 11:21:26;;;;;;;4.00;3.60;;;;;;;;;;5037251;28;20498;-79
2024/01/09 11:23:54;;;;;;;4.47;2.73;;;;;;;;;;5036193;28;20918;-78
2024/01/09 11:26:23;;;;;;;4.40;3.70;;;;;;;;;;5037015;28;20480;-79
2024/01/09 11:28:50;;;;;;;4.03;2.90;;;;;;;;;;5036469;28;20464;-79
2024/01/09 11:31:20;;;;;;;4.90;2.70;;;;;;;;;;5036732;28;20527;-78
2024/01/09 11:33:47;;;;;;;6.70;3.30;;;;;;;;;;5036517;28;20526;-77
2024/01/09 11:36:18;;;;;;;3.50;2.90;;;;;;;;;;5036678;28;20959;-78
2024/01/09 11:38:45;;;;;;;3.77;2.83;;;;;;;;;;5036437;28;20903;-78
2024/01/09 11:41:12;;;;;;;4.50;3.13;;;;;;;;;;5036606;28;20527;-78
2024/01/09 11:43:53;;;;;;;5.47;3.57;;;;;;;;;;5036230;28;20499;-78
2024/01/09 11:46:23;;;;;;;3.37;3.07;;;;;;;;;;5036143;28;20552;-78
2024/01/09 11:48:50;;;;;;;7.53;3.70;;;;;;;;;;5035697;28;20473;-79
2024/01/09 11:51:17;;;;;;;3.67;3.10;;;;;;;;;;5036224;28;20456;-78
2024/01/09 11:53:44;;;;;;;6.23;3.07;;;;;;;;;;5036254;28;20484;-79
2024/01/09 11:56:13;;;;;;;6.17;3.43;;;;;;;;;;5036194;28;21018;-79
2024/01/09 11:58:39;;;;;;;5.20;3.90;;;;;;;;;;5035589;28;20469;-79
2024/01/09 12:01:06;;;;;;;3.70;2.73;;;;;;;;;;5036067;28;20883;-79
2024/01/09 12:03:34;;;;;;;8.03;3.37;;;;;;;;;;5035905;28;21025;-79
2024/01/09 12:06:04;;;;;;;4.80;3.73;;;;;;;;;;5036116;28;20576;-78
2024/01/09 12:08:31;;;;;;;4.67;3.40;;;;;;;;;;5036092;28;20465;-79
2024/01/09 12:10:57;;;;;;;7.53;4.73;;;;;;;;;;5036141;28;20527;-78
2024/01/09 12:13:24;;;;;;;7.40;3.93;;;;;;;;;;5035666;28;20901;-79
2024/01/09 12:15:50;;;;;;;6.80;3.93;;;;;;;;;;5036070;28;20904;-79
2024/01/09 12:18:17;;;;;;;6.57;4.20;;;;;;;;;;5035253;28;20549;-79
2024/01/09 12:20:45;;;;;;;4.93;3.53;;;;;;;;;;5035771;28;20536;-79
2024/01/09 12:23:12;;;;;;;7.60;4.57;;;;;;;;;;5035286;28;20547;-78
2024/01/09 12:25:39;;;;;;;12.60;4.43;;;;;;;;;;5035575;28;20520;-78
2024/01/09 12:28:06;;;;;;;5.17;4.67;;;;;;;;;;5035645;28;20505;-79
2024/01/09 12:30:32;;;;;;;5.47;4.33;;;;;;;;;;5035536;28;20450;-79
2024/01/09 12:32:59;;;;;;;7.53;5.00;;;;;;;;;;5035107;28;20476;-78
2024/01/09 12:35:26;;;;;;;7.73;4.77;;;;;;;;;;5036289;28;20888;-78
2024/01/09 12:37:54;;;;;;;9.50;4.90;;;;;;;;;;5035721;28;20555;-79
2024/01/09 12:40:21;;;;;;;7.43;4.40;;;;;;;;;;5035482;28;20508;-79
2024/01/09 12:43:03;;;;;;;6.80;5.00;;;;;;;;;;5035164;28;20491;-79
2024/01/09 12:45:31;;;;;;;4.90;4.50;;;;;;;;;;5035237;28;20492;-78
2024/01/09 12:47:58;;;;;;;6.23;4.60;;;;;;;;;;5034439;28;20922;-79
2024/01/09 12:50:27;;;;;;;8.33;4.33;;;;;;;;;;5034898;28;20967;-78
2024/01/09 12:52:55;;;;;;;4.63;3.80;;;;;;;;;;5034534;28;20469;-76
2024/01/09 12:55:22;;;;;;;8.50;5.07;;;;;;;;;;5035183;28;20547;-77
2024/01/09 12:57:48;;;;;;;4.97;3.93;;;;;;;;;;5034272;28;20544;-79
2024/01/09 13:00:15;;;;;;;6.43;4.47;;;;;;;;;;5034742;28;20523;-78
2024/01/09 13:02:42;;;;;;;5.00;3.90;;;;;;;;;;5034596;28;20913;-76
2024/01/09 13:05:09;;;;;;;4.87;4.30;;;;;;;;;;5034796;28;21018;-77
2024/01/09 13:07:36;;;;;;;5.27;4.13;;;;;;;;;;5034235;28;20899;-77
2024/01/09 13:10:04;;;;;;;9.60;4.57;;;;;;;;;;5034363;28;21041;-77
2024/01/09 13:12:31;;;;;;;8.10;4.47;;;;;;;;;;5034015;28;20548;-77
2024/01/09 13:14:57;;;;;;;5.70;4.40;;;;;;;;;;5034518;28;20903;-77
2024/01/09 13:17:23;;;;;;;4.20;3.70;;;;;;;;;;5033736;28;20547;-76
2024/01/09 13:19:52;;;;;;;6.50;4.73;;;;;;;;;;5034124;28;21002;-79
2024/01/09 13:22:18;;;;;;;5.83;4.50;;;;;;;;;;5034019;28;20939;-79
2024/01/09 13:24:45;;;;;;;6.70;4.93;;;;;;;;;;5034405;28;20544;-78
2024/01/09 13:27:13;;;;;;;5.43;4.13;;;;;;;;;;5033685;28;20465;-78
2024/01/09 13:29:39;;;;;;;5.80;4.07;;;;;;;;;;5034320;28;20508;-78
2024/01/09 13:32:06;;;;;;;9.37;4.07;;;;;;;;;;5034133;28;20531;-79
2024/01/09 13:34:34;;;;;;;6.10;4.50;;;;;;;;;;5034389;28;20904;-79
2024/01/09 13:37:00;;;;;;;4.80;3.93;;;;;;;;;;5034487;28;20441;-78
2024/01/09 13:39:28;;;;;;;3.70;3.30;;;;;;;;;;5033984;28;20915;-77
2024/01/09 13:41:54;;;;;;;6.47;5.07;;;;;;;;;;5034176;28;20448;-79
2024/01/09 13:44:22;;;;;;;3.97;3.43;;;;;;;;;;5033841;28;20990;-78
2024/01/09 13:46:49;;;;;;;4.10;3.07;;;;;;;;;;5034105;28;20485;-77
2024/01/09 13:49:15;;;;;;;4.83;3.70;;;;;;;;;;5033815;28;20522;-78
2024/01/09 13:51:42;;;;;;;5.33;3.30;;;;;;;;;;5034454;28;20487;-78
2024/01/09 13:54:09;;;;;;;5.60;4.23;;;;;;;;;;5033957;28;20551;-79
2024/01/09 13:56:35;;;;;;;5.93;3.30;;;;;;;;;;5034510;28;20492;-78
2024/01/09 13:59:03;;;;;;;4.03;3.00;;;;;;;;;;5034066;28;20499;-78
2024/01/09 14:01:31;;;;;;;4.77;3.73;;;;;;;;;;5034603;28;20480;-78
2024/01/09 14:03:57;;;;;;;9.87;3.77;;;;;;;;;;5034128;28;20552;-78
2024/01/09 14:06:29;;;;;;;4.60;3.63;;;;;;;;;;5034646;28;20570;-78
2024/01/09 14:08:57;;;;;;;4.67;3.30;;;;;;;;;;5034335;28;20469;-78
2024/01/09 14:11:23;;;;;;;8.60;3.87;;;;;;;;;;5037128;28;20448;-78
2024/01/09 14:13:50;;;;;;;6.20;3.37;;;;;;;;;;5037887;28;20496;-78
2024/01/09 14:16:17;;;;;;;4.17;2.90;;;;;;;;;;5038189;28;20429;-78
2024/01/09 14:18:45;;;;;;;6.80;4.40;;;;;;;;;;5037935;28;20552;-78
2024/01/09 14:21:11;;;;;;;5.97;3.70;;;;;;;;;;5037912;28;20451;-78
2024/01/09 14:23:37;;;;;;;4.50;2.90;;;;;;;;;;5037487;28;20468;-78
2024/01/09 14:26:05;;;;;;;5.60;3.30;;;;;;;;;;5038246;28;20576;-78
2024/01/09 14:28:31;;;;;;;5.33;4.10;;;;;;;;;;5037985;28;20473;-78
2024/01/09 14:30:58;;;;;;;7.07;3.80;;;;;;;;;;5038316;28;20519;-78
2024/01/09 14:33:24;;;;;;;10.10;4.60;;;;;;;;;;5037291;28;20499;-79
2024/01/09 14:35:52;;;;;;;6.30;3.90;;;;;;;;;;5037745;28;20540;-78
2024/01/09 14:38:19;;;;;;;5.10;3.57;;;;;;;;;;5038855;28;20556;-78
2024/01/09 14:40:45;;;;;;;6.27;4.00;;;;;;;;;;5037682;28;20441;-78